KAPC/APC METAR and TAF weather

Enter ICAO airport designator
Station Type Date Time Source
KAPC METAR 2018/07/21 12:54 UTC NOAA

KAPC 211254Z AUTO 26003KT 10SM CLR 15/13 A2995 RMK AO2 SLP134 T01500128


Station Type Date Time Source
KAPC Decoded METAR 2018/07/21 12:54 UTC NOAA

NAPA COUNTY AIRPORT, CA, United States (KAPC) 38-12N 122-17W 13M
Jul 21, 2018 - 08:54 AM EDT / 2018.07.21 1254 UTC
Wind: from the W (260 degrees) at 3 MPH (3 KT):0
Visibility: 10 mile(s):0
Sky conditions: clear
Temperature: 59.0 F (15.0 C)
Dew Point: 55.0 F (12.8 C)
Relative Humidity: 86%
Pressure (altimeter): 29.95 in. Hg (1014 hPa)
ob: KAPC 211254Z AUTO 26003KT 10SM CLR 15/13 A2995 RMK AO2 SLP134 T01500128
cycle: 13

Station Type Date Time Source
KAPC TAF 2016/02/08 18:39 UTC NOAA

TAF KAPC 081738Z 0818/0918 08008KT P6SM SKC
FM081900 09012KT P6SM SKC
FM090000 07007KT P6SM SKC
FM090600 04004KT P6SM SKC


Example: see airport list